Latest Weather Observations for Wellcamp Airport

IDQ60901

Issued at 8:21 am EST Tuesday 27 September 2022 (issued every 10 minutes, with the page automatically refreshed every 10 minutes)

About weather observations | Map of Brisbane area stations | Latest observations for Brisbane area | Other Formats
Station Details ID: 541150 Name: WELLCAMP AIRPORT Lat: -27.55 Lon: 151.78 Height: 436.98 m
Data from the previous 72 hours. | See also: Recent months for locations in Queensland
Date/Time
EST
Temp
°C
App
Temp
°C
Dew
Point
°C
Rel
Hum
%
Delta-T
°C
Wind Press
QNH
hPa
Press
MSL
hPa
Rain since
9am
mm
Dir  Spd
km/h
Gust
km/h
Spd
kts
Gust
kts
27/08:00am 18.7 18.0 15.4 81 2.0 N 13 20 7 11 1015.5 1014.6 0.0
27/07:30am 16.9 16.7 14.7 87 1.3 N 9 15 5 8 1015.8 1014.9 0.0
27/07:00am 15.4 16.0 14.3 93 0.6 NNW 4 7 2 4 1015.6 1014.7 0.0
27/06:30am 13.6 14.1 12.7 94 0.5 WNW 2 4 1 2 1015.5 1014.6 0.0
27/06:00am 12.0 11.6 11.2 95 0.4 W 4 6 2 3 1014.9 1014.1 0.0
27/05:30am 12.4 12.1 11.6 95 0.4 SSE 4 6 2 3 1014.6 1013.7 0.0
27/05:00am 12.4 12.9 11.6 95 0.4 CALM 0 4 0 2 1014.4 1013.5 0.0
27/04:30am 13.0 13.7 12.1 94 0.5 CALM 0 2 0 1 1014.2 1013.3 0.0
27/04:00am 12.8 13.0 11.9 94 0.5 WSW 2 6 1 3 1014.1 1013.2 0.0
27/03:30am 13.4 13.3 12.0 91 0.8 NNE 4 9 2 5 1014.0 1013.1 0.0
27/03:00am 12.0 10.9 9.9 87 1.1 NNE 6 7 3 4 1014.0 1013.1 0.0
27/02:30am 11.4 10.6 9.8 90 0.8 NNE 4 6 2 3 1014.1 1013.2 0.0
27/02:00am 11.3 10.7 8.9 85 1.2 - 2 6 1 3 1014.4 1013.5 0.0
27/01:30am 10.7 9.9 8.3 85 1.2 NNE 2 6 1 3 1014.6 1013.7 0.0
27/01:00am 12.3 11.0 9.1 81 1.6 SSE 6 7 3 4 1015.0 1014.2 0.0
27/12:30am 11.3 9.6 7.4 77 1.9 SSW 6 6 3 3 1015.2 1014.3 0.0
27/12:00am 11.4 10.0 7.3 76 2.0 NNE 4 7 2 4 1015.2 1014.3 0.0
 
Date/Time
EST
Temp
°C
App
Temp
°C
Dew
Point
°C
Rel
Hum
%
Delta-T
°C
Wind Press
QNH
hPa
Press
MSL
hPa
Rain since
9am
mm
Dir  Spd
km/h
Gust
km/h
Spd
kts
Gust
kts
26/11:30pm 12.3 9.6 7.4 72 2.4 SSE 11 13 6 7 1015.0 1014.2 0.0
26/11:00pm 12.4 9.3 7.3 71 2.5 SSE 13 15 7 8 1014.9 1014.1 0.0
26/10:30pm 11.5 8.3 6.8 73 2.3 S 13 17 7 9 1015.3 1014.4 0.0
26/10:00pm 12.7 9.3 7.6 71 2.5 SSE 15 17 8 9 1015.4 1014.5 0.0
26/09:30pm 13.7 10.8 8.3 70 2.8 SE 13 15 7 8 1015.7 1014.8 0.0
26/09:00pm 14.1 11.4 7.4 64 3.4 SE 11 13 6 7 1015.8 1014.9 0.0
26/08:30pm 15.7 12.5 7.0 56 4.4 SE 13 17 7 9 1015.7 1014.8 0.0
26/08:00pm 16.2 13.5 7.4 56 4.5 SSE 11 13 6 7 1015.6 1014.7 0.0
26/07:30pm 16.6 14.7 9.1 61 4.0 SSE 9 15 5 8 1015.2 1014.3 0.0
26/07:00pm 15.9 15.3 10.4 70 3.0 WNW 4 7 2 4 1014.8 1014.0 0.0
26/06:30pm 17.2 17.3 11.5 69 3.2 WSW 2 4 1 2 1014.3 1013.4 0.0
26/06:00pm 19.5 18.8 10.0 54 5.2 S 4 6 2 3 1014.0 1013.1 0.0
26/05:30pm 22.2 21.5 8.7 42 7.3 SW 2 4 1 2 1013.9 1013.0 0.0
26/05:00pm 22.5 20.5 8.6 41 7.5 WSW 9 15 5 8 1013.8 1012.9 0.0
26/04:30pm 23.9 21.4 8.3 37 8.5 W 11 19 6 10 1013.5 1012.6 0.0
26/04:00pm 24.2 22.3 7.4 34 9.0 W 7 11 4 6 1013.7 1012.8 0.0
26/03:30pm 24.2 20.5 7.8 35 8.8 WNW 17 26 9 14 1013.7 1012.8 0.0
26/03:00pm 24.3 21.3 7.9 35 8.9 W 13 30 7 16 1013.7 1012.8 0.0
26/02:30pm 22.7 20.0 7.3 37 8.2 W 11 20 6 11 1014.0 1013.1 0.0
26/02:00pm 23.8 19.0 7.4 35 8.8 W 22 30 12 16 1014.2 1013.3 0.0
26/01:30pm 23.8 20.6 7.0 34 8.9 W 13 20 7 11 1014.6 1013.7 0.0
26/01:00pm 24.7 21.4 8.2 35 9.0 W 15 32 8 17 1014.9 1014.1 0.0
26/12:30pm 24.0 21.5 6.7 33 9.1 WNW 9 20 5 11 1015.4 1014.5 0.0
26/12:00pm 23.1 20.4 7.2 36 8.4 WSW 11 19 6 10 1015.9 1015.0 0.0
26/11:30am 23.1 20.9 8.0 38 8.1 NNW 9 19 5 10 1016.5 1015.6 0.0
26/11:00am 22.3 20.2 8.1 40 7.6 N 9 19 5 10 1016.9 1016.1 0.0
26/10:30am 21.5 - 8.1 42 7.2 - - - - - 1017.3 1016.5 0.0
26/10:00am 21.3 19.3 7.2 40 7.4 N 7 11 4 6 1017.6 1016.7 0.0
26/09:30am 20.6 18.9 8.3 45 6.6 NNE 7 13 4 7 1017.8 1016.9 0.0
26/09:00am 19.8 18.4 8.8 49 5.9 NNE 6 11 3 6 1017.8 1016.9 0.0
26/08:30am 18.4 18.2 11.7 65 3.8 N 4 7 2 4 1018.0 1017.1 0.0
26/08:00am 16.5 16.4 12.1 75 2.5 SSE 4 6 2 3 1018.1 1017.2 0.0
26/07:30am 12.9 12.0 10.6 86 1.2 SSE 6 7 3 4 1018.0 1017.1 0.0
26/07:00am 10.5 9.7 8.3 86 1.1 SE 2 6 1 3 1018.0 1017.1 0.0
26/06:30am 7.6 5.9 6.1 90 0.7 SE 4 6 2 3 1017.7 1016.8 0.0
26/06:00am 6.2 4.0 5.3 94 0.4 SE 6 9 3 5 1017.7 1016.8 0.0
26/05:30am 5.9 3.5 4.5 91 0.6 SE 6 9 3 5 1017.2 1016.4 0.0
26/05:00am 5.8 3.2 4.3 90 0.7 SSE 7 9 4 5 1016.9 1016.1 0.0
26/04:30am 5.6 3.0 4.1 90 0.7 SE 7 11 4 6 1016.6 1015.7 0.0
26/04:00am 5.4 3.3 3.9 90 0.6 SSE 4 6 2 3 1016.4 1015.5 0.0
26/03:30am 6.5 4.0 4.7 88 0.8 SSE 7 9 4 5 1016.4 1015.5 0.0
26/03:00am 6.3 3.8 4.8 90 0.7 SSE 7 11 4 6 1016.5 1015.6 0.0
26/02:30am 5.8 3.2 4.4 91 0.6 S 7 9 4 5 1016.8 1016.0 0.0
26/02:00am 6.9 4.7 5.1 88 0.8 SSE 6 9 3 5 1017.2 1016.4 0.0
26/01:30am 7.4 5.0 5.4 87 0.9 SSE 7 9 4 5 1017.6 1016.7 0.0
26/01:00am 7.9 5.6 5.5 85 1.1 SSE 7 11 4 6 1017.8 1016.9 0.0
26/12:30am 7.1 3.9 4.9 86 1.0 SSE 11 11 6 6 1017.8 1016.9 0.0
26/12:00am 8.8 5.8 6.1 83 1.3 SSE 11 11 6 6 1017.8 1016.9 0.0
 
Date/Time
EST
Temp
°C
App
Temp
°C
Dew
Point
°C
Rel
Hum
%
Delta-T
°C
Wind Press
QNH
hPa
Press
MSL
hPa
Rain since
9am
mm
Dir  Spd
km/h
Gust
km/h
Spd
kts
Gust
kts
25/11:30pm 9.7 6.8 6.4 80 1.6 SSE 11 13 6 7 1017.8 1016.9 0.0
25/11:00pm 10.0 7.4 6.0 76 1.9 S 9 9 5 5 1017.8 1016.9 0.0
25/10:30pm 9.4 6.8 6.3 81 1.5 SSE 9 13 5 7 1017.6 1016.7 0.0
25/10:00pm 10.0 6.7 6.5 79 1.7 S 13 15 7 8 1017.7 1016.8 0.0
25/09:30pm 9.2 6.3 6.6 84 1.2 SE 11 13 6 7 1017.4 1016.6 0.0
25/09:00pm 11.5 8.8 7.4 76 2.0 SE 11 13 6 7 1017.4 1016.6 0.0
25/08:30pm 11.2 8.2 7.5 78 1.8 SE 13 15 7 8 1017.3 1016.5 0.0
25/08:00pm 12.1 9.6 8.0 76 2.1 SE 11 13 6 7 1016.9 1016.1 0.0
25/07:30pm 12.9 10.6 7.4 69 2.7 SSE 9 11 5 6 1016.5 1015.6 0.0
25/07:00pm 13.5 11.9 7.9 69 2.8 SSE 6 7 3 4 1016.1 1015.2 0.0
25/06:30pm 14.7 13.4 7.7 63 3.6 SSE 4 6 2 3 1015.7 1014.8 0.0
25/06:00pm 16.9 14.4 6.7 51 5.1 SSW 9 11 5 6 1015.3 1014.4 0.0
25/05:30pm 19.3 16.6 7.4 46 6.2 SSW 11 13 6 7 1014.8 1014.0 0.0
25/05:00pm 21.0 18.2 6.9 40 7.3 SSW 11 19 6 10 1014.7 1013.9 0.0
25/04:30pm 21.9 18.6 6.6 37 8.0 SSW 13 19 7 10 1014.5 1013.6 0.0
25/04:00pm 22.3 18.2 6.1 35 8.4 SW 17 26 9 14 1014.4 1013.5 0.0
25/03:30pm 22.6 19.7 4.6 31 9.1 W 9 19 5 10 1014.3 1013.4 0.0
25/03:00pm 22.4 17.8 5.4 33 8.7 SW 19 32 10 17 1014.4 1013.5 0.0
25/02:30pm 22.4 18.2 5.8 34 8.5 WSW 17 24 9 13 1014.3 1013.4 0.0
25/02:00pm 22.5 19.1 5.9 34 8.6 WSW 13 24 7 13 1014.6 1013.7 0.0
25/01:30pm 22.0 18.4 6.7 37 8.0 SW 15 28 8 15 1015.2 1014.3 0.0
25/01:00pm 22.4 19.1 6.2 35 8.4 WSW 13 32 7 17 1015.5 1014.6 0.0
25/12:30pm 21.8 17.2 5.7 35 8.2 SW 19 30 10 16 1016.1 1015.2 0.0
25/12:00pm 21.0 15.6 4.6 34 8.2 WSW 22 35 12 19 1016.7 1015.9 0.0
25/11:30am 21.1 16.4 5.9 37 7.8 WSW 20 32 11 17 1017.0 1016.2 0.0
25/11:00am 20.4 16.3 6.4 40 7.2 SW 17 24 9 13 1017.4 1016.6 0.0
25/10:30am 19.7 15.8 5.4 39 7.2 SW 15 24 8 13 1017.8 1016.9 0.0
25/10:00am 19.8 15.3 6.2 41 6.9 SW 19 28 10 15 1017.7 1016.8 0.0
25/09:30am 18.8 14.5 5.3 41 6.7 SSW 17 28 9 15 1018.0 1017.1 0.0
25/09:00am 18.5 13.7 5.4 42 6.5 SW 20 30 11 16 1017.6 1016.7 0.0
25/08:30am 16.9 16.5 9.6 62 3.9 ESE 2 6 1 3 1017.6 1016.7 0.0
25/08:00am 14.4 13.6 9.8 74 2.4 NE 4 6 2 3 1017.2 1016.4 0.0
25/07:30am 13.1 13.0 9.4 78 1.9 CALM 0 4 0 2 1017.0 1016.2 0.0
25/07:00am 9.8 9.1 8.4 91 0.7 SE 2 6 1 3 1016.7 1015.9 0.0
25/06:30am 7.6 5.6 6.9 95 0.3 SSE 7 11 4 6 1016.5 1015.6 0.0
25/06:00am 5.2 3.2 4.6 96 0.3 SE 4 6 2 3 1016.5 1015.6 0.0
25/05:30am 6.1 3.9 5.5 96 0.3 SSE 6 6 3 3 1015.9 1015.0 0.0
25/05:00am 5.6 3.7 4.9 95 0.3 S 4 6 2 3 1015.7 1014.8 0.0
25/04:30am 7.4 6.3 6.8 96 0.3 SSE 2 4 1 2 1015.5 1014.6 0.0
25/04:00am 6.4 4.7 5.7 95 0.3 N 4 6 2 3 1015.3 1014.4 0.0
25/03:30am 6.9 5.2 6.0 94 0.4 S 4 6 2 3 1015.0 1014.2 0.0
25/03:00am 8.5 7.6 7.7 95 0.4 SSW 2 4 1 2 1015.2 1014.3 0.0
25/02:30am 9.7 8.1 8.1 90 0.8 ENE 6 6 3 3 1015.3 1014.4 0.0
25/02:00am 9.8 9.0 8.2 90 0.8 SSE 2 6 1 3 1015.3 1014.4 0.0
25/01:30am 11.3 9.7 8.9 85 1.2 SSE 7 9 4 5 1015.3 1014.4 0.0
25/01:00am 12.4 10.2 9.2 81 1.7 S 11 13 6 7 1015.4 1014.5 0.0
25/12:30am 12.2 9.6 9.2 82 1.5 SSW 13 17 7 9 1015.6 1014.7 0.0
25/12:00am 12.5 10.3 9.5 82 1.6 S 11 11 6 6 1015.7 1014.8 0.0
 
Date/Time
EST
Temp
°C
App
Temp
°C
Dew
Point
°C
Rel
Hum
%
Delta-T
°C
Wind Press
QNH
hPa
Press
MSL
hPa
Rain since
9am
mm
Dir  Spd
km/h
Gust
km/h
Spd
kts
Gust
kts
24/11:30pm 12.6 11.2 9.4 81 1.7 SSE 7 11 4 6 1015.6 1014.7 0.0
24/11:00pm 13.3 10.7 9.5 78 2.0 S 13 15 7 8 1015.4 1014.5 0.0
24/10:30pm 14.0 11.5 9.8 76 2.2 SSW 13 17 7 9 1015.3 1014.4 0.0
24/10:00pm 15.4 12.7 10.2 71 2.8 SSW 15 19 8 10 1015.2 1014.3 0.0
24/09:30pm 15.9 13.2 10.2 69 3.1 SW 15 19 8 10 1015.0 1014.2 0.0
24/09:00pm 17.1 14.1 10.5 65 3.6 SW 17 20 9 11 1014.8 1014.0 0.0
24/08:30pm 16.8 13.7 10.4 66 3.5 SW 17 22 9 12 1014.4 1013.5 0.0
24/08:00pm 16.5 13.4 10.4 67 3.3 WSW 17 20 9 11 1014.1 1013.2 0.0
24/07:30pm 16.3 13.6 10.4 68 3.2 SW 15 20 8 11 1013.7 1012.8 0.0
24/07:00pm 16.4 13.5 9.8 65 3.5 SW 15 17 8 9 1013.1 1012.2 0.0
24/06:30pm 17.0 13.8 9.9 63 3.8 WSW 17 20 9 11 1012.5 1011.6 0.0
24/06:00pm 18.3 15.9 9.9 58 4.6 WSW 13 17 7 9 1012.1 1011.2 0.0
24/05:30pm 20.1 17.4 10.2 53 5.5 WSW 15 22 8 12 1011.6 1010.7 0.0
24/05:00pm 22.0 18.4 9.9 46 6.7 WSW 19 28 10 15 1011.3 1010.4 0.0
24/04:30pm 22.6 18.2 10.4 46 6.8 WSW 24 33 13 18 1011.1 1010.2 0.0
24/04:00pm 22.8 18.1 10.6 46 6.9 WSW 26 37 14 20 1010.9 1010.0 0.0
24/03:30pm 22.5 18.1 10.3 46 6.8 WSW 24 35 13 19 1010.8 1009.9 0.0
24/03:00pm 23.4 18.4 11.1 46 7.0 W 28 37 15 20 1010.8 1009.9 0.0
24/02:30pm 23.7 20.5 11.4 46 7.0 SW 19 30 10 16 1010.9 1010.0 0.0
24/02:00pm 23.6 19.8 12.3 49 6.6 WSW 24 43 13 23 1011.0 1010.1 0.0
24/01:30pm 23.2 19.1 11.6 48 6.6 SW 24 32 13 17 1011.3 1010.4 0.0
24/01:00pm 23.2 18.8 10.3 44 7.2 WSW 24 35 13 19 1011.7 1010.8 0.0
24/12:30pm 22.1 18.0 11.5 51 6.0 WSW 24 37 13 20 1012.1 1011.2 0.0
24/12:00pm 22.4 18.8 11.8 51 6.1 SW 22 30 12 16 1012.5 1011.6 0.0
24/11:30am 22.2 17.6 11.0 49 6.3 WSW 26 43 14 23 1013.0 1012.1 0.0
24/11:00am 21.9 18.6 11.6 52 5.9 WSW 20 32 11 17 1013.4 1012.5 0.0
24/10:30am 21.2 17.6 12.9 59 4.8 WSW 24 35 13 19 1013.8 1012.9 0.0
24/10:00am 20.6 17.8 13.3 63 4.3 WSW 20 28 11 15 1014.1 1013.2 0.0
24/09:30am 19.6 17.6 13.8 69 3.4 WSW 17 26 9 14 1014.2 1013.3 0.0
24/09:00am 17.8 16.6 14.1 79 2.2 NNW 13 19 7 10 1014.3 1013.4 0.0
24/08:30am 16.3 15.7 13.6 84 1.6 N 9 15 5 8 1014.3 1013.4 0.0

Latest Capital City Observations: Canberra | Sydney | Melbourne | Brisbane | Adelaide | Perth | Hobart | Darwin

Other formats

Comma delimited format used in spreadsheet applications
http://www.bom.gov.au/fwo/IDQ60901/IDQ60901.99435.axf

JavaScript Object Notation format (JSON) in row-major order
http://www.bom.gov.au/fwo/IDQ60901/IDQ60901.99435.json

Data quality

Most of these data are generated automatically and are frequently updated. Quality checks on data are not normally performed. It is possible for incorrect values to appear. Refer to information at About Latest Weather Observations and please check the disclaimer before using these data.